Time;durP1;ratioP1;P1;durP2;ratioP2;P2;SDS_P1;SDS_P2;PMS_P1;PMS_P2;Temp;Humidity;BMP_temperature;BMP_pressure;BME280_temperature;BME280_humidity;BME280_pressure;Samples;Min_cycle;Max_cycle;Signal;HPM_P1;HPM_P2
2022/08/02 00:01:24;;;;;;;4.65;4.20;;;26.80;77.50;;;;;;1917542;75;21067;-65
2022/08/02 00:03:53;;;;;;;6.00;4.47;;;26.70;77.50;;;;;;1917421;75;21022;-64
2022/08/02 00:06:22;;;;;;;7.75;4.35;;;26.70;77.60;;;;;;1917328;75;21089;-64
2022/08/02 00:08:52;;;;;;;5.67;5.12;;;26.70;77.60;;;;;;1917423;74;21023;-64
2022/08/02 00:11:22;;;;;;;5.33;4.05;;;26.70;77.60;;;;;;1917551;75;21006;-64
2022/08/02 00:13:51;;;;;;;5.30;4.78;;;26.70;77.70;;;;;;1917526;75;21525;-64
2022/08/02 00:16:21;;;;;;;4.85;4.42;;;26.60;77.60;;;;;;1917432;75;21037;-64
2022/08/02 00:18:50;;;;;;;5.67;4.62;;;26.60;77.70;;;;;;1917427;75;21045;-64
2022/08/02 00:21:20;;;;;;;6.60;5.03;;;26.70;77.80;;;;;;1917543;75;21362;-64
2022/08/02 00:23:49;;;;;;;6.10;5.33;;;26.60;77.70;;;;;;1917439;75;20982;-64
2022/08/02 00:26:19;;;;;;;5.25;4.70;;;26.70;77.80;;;;;;1917535;75;21095;-64
2022/08/02 00:28:48;;;;;;;5.20;4.25;;;26.60;77.80;;;;;;1917421;75;21025;-64
2022/08/02 00:31:18;;;;;;;7.00;5.12;;;26.60;77.90;;;;;;1917407;74;21115;-64
2022/08/02 00:33:47;;;;;;;10.05;5.35;;;26.60;77.90;;;;;;1917574;75;20979;-64
2022/08/02 00:36:17;;;;;;;16.80;5.28;;;26.60;77.90;;;;;;1919189;74;21140;-64
2022/08/02 00:38:47;;;;;;;8.78;4.97;;;26.60;78.00;;;;;;1924116;74;21055;-64
2022/08/02 00:41:19;;;;;;;4.78;4.28;;;26.60;78.00;;;;;;1924072;74;21085;-64
2022/08/02 00:43:49;;;;;;;5.80;4.95;;;26.60;78.00;;;;;;1924098;74;21015;-64
2022/08/02 00:46:20;;;;;;;5.47;4.58;;;26.60;77.90;;;;;;1924207;73;21043;-64
2022/08/02 00:48:49;;;;;;;6.20;5.60;;;26.60;77.80;;;;;;1924197;74;21198;-64
2022/08/02 00:51:19;;;;;;;6.10;4.78;;;26.50;77.80;;;;;;1924202;74;21034;-64
2022/08/02 00:53:48;;;;;;;6.35;4.80;;;26.50;78.00;;;;;;1924151;74;21035;-64
2022/08/02 00:56:17;;;;;;;5.87;5.28;;;26.50;78.10;;;;;;1924189;74;21019;-64
2022/08/02 00:58:47;;;;;;;6.17;4.60;;;26.50;78.00;;;;;;1924196;74;21055;-64
2022/08/02 01:01:16;;;;;;;7.35;5.10;;;26.50;78.10;;;;;;1924237;74;21148;-64
2022/08/02 01:03:46;;;;;;;6.30;4.72;;;26.50;78.10;;;;;;1924245;74;21034;-64
2022/08/02 01:06:16;;;;;;;5.03;4.28;;;26.40;78.20;;;;;;1924095;74;21015;-64
2022/08/02 01:08:45;;;;;;;5.53;4.40;;;26.40;78.20;;;;;;1924053;74;21023;-64
2022/08/02 01:11:15;;;;;;;5.85;5.25;;;26.40;78.10;;;;;;1924178;74;21031;-64
2022/08/02 01:13:44;;;;;;;12.07;6.75;;;26.40;78.20;;;;;;1924125;74;21084;-64
2022/08/02 01:16:16;;;;;;;7.20;5.40;;;26.30;78.20;;;;;;1924076;74;21018;-64
2022/08/02 01:18:48;;;;;;;6.40;5.25;;;26.30;78.30;;;;;;1924198;74;21509;-63
2022/08/02 01:21:35;;;;;;;5.15;4.62;;;26.20;78.50;;;;;;1924030;73;21489;-63
2022/08/02 01:24:22;;;;;;;8.18;4.80;;;26.10;78.70;;;;;;1924119;74;21112;-64
2022/08/02 01:26:54;;;;;;;6.83;5.03;;;26.10;78.90;;;;;;1922749;74;21059;-64
2022/08/02 01:29:26;;;;;;;18.98;6.40;;;26.10;78.80;;;;;;1921291;74;21054;-64
2022/08/02 01:32:01;;;;;;;5.37;4.87;;;26.10;78.80;;;;;;1924208;74;21104;-64
2022/08/02 01:34:51;;;;;;;7.55;4.90;;;26.10;78.80;;;;;;1923274;74;21501;-64
2022/08/02 01:37:38;;;;;;;11.93;5.67;;;26.10;78.80;;;;;;1920910;73;21057;-64
2022/08/02 01:40:13;;;;;;;6.53;5.12;;;26.00;78.80;;;;;;1917519;75;21203;-64
2022/08/02 01:42:45;;;;;;;5.25;4.78;;;26.10;78.90;;;;;;1917229;75;21076;-64
2022/08/02 01:45:16;;;;;;;6.47;5.00;;;26.00;79.00;;;;;;1917534;75;21424;-64
2022/08/02 01:47:47;;;;;;;5.58;5.05;;;26.00;79.00;;;;;;1917637;75;21009;-64
2022/08/02 01:50:19;;;;;;;9.00;5.15;;;26.00;79.10;;;;;;1917476;75;21518;-64
2022/08/02 01:52:53;;;;;;;9.33;6.37;;;26.00;79.20;;;;;;1917523;75;21448;-64
2022/08/02 01:55:28;;;;;;;7.40;5.53;;;26.00;79.00;;;;;;1917484;75;21084;-64
2022/08/02 01:58:08;;;;;;;5.37;4.58;;;25.90;79.10;;;;;;1915994;74;21015;-64
2022/08/02 02:00:46;;;;;;;5.35;4.85;;;25.90;79.30;;;;;;1928805;73;21116;-64
2022/08/02 02:03:20;;;;;;;5.20;4.72;;;25.90;79.50;;;;;;1929922;74;21080;-64
2022/08/02 02:05:51;;;;;;;7.30;5.60;;;25.90;79.50;;;;;;1930168;74;21437;-64
2022/08/02 02:08:22;;;;;;;5.58;5.08;;;25.90;79.50;;;;;;1929906;74;21009;-64
2022/08/02 02:10:53;;;;;;;5.58;5.08;;;25.90;79.50;;;;;;1929851;74;21079;-65
2022/08/02 02:13:23;;;;;;;7.80;5.00;;;25.80;79.60;;;;;;1929896;74;21091;-65
2022/08/02 02:15:54;;;;;;;8.03;5.60;;;25.80;79.70;;;;;;1929874;74;21026;-65
2022/08/02 02:18:26;;;;;;;5.97;5.22;;;25.80;79.70;;;;;;1929949;74;20997;-65
2022/08/02 02:20:56;;;;;;;6.33;5.60;;;25.90;79.90;;;;;;1929820;73;21034;-64
2022/08/02 02:23:26;;;;;;;10.20;5.95;;;25.80;79.80;;;;;;1929783;74;21037;-64
2022/08/02 02:25:55;;;;;;;6.42;5.30;;;25.80;79.90;;;;;;1929728;74;21104;-64
2022/08/02 02:28:29;;;;;;;8.05;6.20;;;25.80;79.80;;;;;;1929833;74;21118;-64
2022/08/02 02:31:17;;;;;;;6.83;6.12;;;25.80;79.90;;;;;;1929844;74;20989;-65
2022/08/02 02:33:55;;;;;;;6.90;5.58;;;25.80;79.80;;;;;;1929917;74;21401;-65
2022/08/02 02:36:25;;;;;;;7.65;6.37;;;25.80;79.80;;;;;;1928576;74;21093;-64
2022/08/02 02:38:57;;;;;;;8.60;5.40;;;25.70;79.70;;;;;;1929830;74;21064;-65
2022/08/02 02:41:27;;;;;;;6.22;5.22;;;25.80;79.90;;;;;;1929844;74;21111;-65
2022/08/02 02:43:59;;;;;;;4.67;4.28;;;25.70;79.90;;;;;;1929800;74;20998;-64
2022/08/02 02:46:31;;;;;;;9.73;6.15;;;25.70;80.00;;;;;;1929758;74;21017;-65
2022/08/02 02:49:01;;;;;;;8.78;6.45;;;25.80;80.00;;;;;;1929846;74;21002;-65
2022/08/02 02:51:31;;;;;;;8.43;5.62;;;25.90;79.80;;;;;;1929836;74;21472;-65
2022/08/02 02:54:01;;;;;;;7.12;6.12;;;25.90;79.70;;;;;;1929784;74;21021;-64
2022/08/02 02:56:30;;;;;;;8.95;5.55;;;25.90;79.60;;;;;;1929832;74;21006;-64
2022/08/02 02:59:00;;;;;;;15.00;6.20;;;25.90;79.90;;;;;;1929829;74;21075;-64
2022/08/02 03:01:30;;;;;;;7.40;5.37;;;25.90;80.10;;;;;;1929754;74;21495;-65
2022/08/02 03:04:05;;;;;;;5.75;5.25;;;25.90;80.30;;;;;;1929765;74;20989;-64
2022/08/02 03:06:36;;;;;;;10.25;6.28;;;25.90;80.50;;;;;;1929735;74;21135;-65
2022/08/02 03:09:07;;;;;;;8.65;5.55;;;26.00;80.70;;;;;;1929847;74;21134;-65
2022/08/02 03:11:37;;;;;;;7.25;5.53;;;26.00;80.70;;;;;;1929714;74;21025;-65
2022/08/02 03:14:10;;;;;;;7.83;5.58;;;26.10;80.80;;;;;;1929841;74;21037;-65
2022/08/02 03:16:45;;;;;;;9.00;5.43;;;26.10;80.80;;;;;;1929988;74;21095;-65
2022/08/02 03:19:15;;;;;;;7.55;5.50;;;26.20;80.80;;;;;;1929880;74;21475;-64
2022/08/02 03:21:46;;;;;;;6.08;5.42;;;26.30;80.80;;;;;;1929725;74;21065;-64
2022/08/02 03:24:15;;;;;;;6.87;5.05;;;26.40;80.70;;;;;;1929723;74;21065;-64
2022/08/02 03:26:45;;;;;;;6.28;5.50;;;26.40;80.60;;;;;;1929835;74;21069;-64
2022/08/02 03:29:14;;;;;;;6.95;6.35;;;26.50;80.60;;;;;;1929790;74;21021;-64
2022/08/02 03:31:46;;;;;;;7.03;5.25;;;26.60;81.20;;;;;;1929800;74;21096;-64
2022/08/02 03:34:15;;;;;;;5.83;4.83;;;26.60;80.40;;;;;;1929858;74;21565;-65
2022/08/02 03:36:45;;;;;;;5.20;4.75;;;26.80;80.30;;;;;;1929738;74;21013;-65
2022/08/02 03:39:15;;;;;;;7.17;5.78;;;26.90;80.10;;;;;;1929929;74;21573;-64
2022/08/02 03:41:45;;;;;;;5.80;5.30;;;27.00;80.00;;;;;;1929849;74;21069;-65
2022/08/02 03:44:15;;;;;;;5.20;4.70;;;27.10;79.60;;;;;;1930076;74;21135;-64
2022/08/02 03:46:45;;;;;;;12.45;5.65;;;27.20;79.30;;;;;;1930056;74;21076;-64
2022/08/02 03:49:17;;;;;;;7.00;4.85;;;27.20;79.10;;;;;;1930025;74;21029;-64
2022/08/02 03:51:46;;;;;;;8.85;7.67;;;27.20;78.90;;;;;;1929973;74;21061;-64
2022/08/02 03:54:17;;;;;;;13.20;7.97;;;27.20;78.80;;;;;;1930090;74;21052;-64
2022/08/02 03:56:46;;;;;;;11.00;7.53;;;27.20;78.80;;;;;;1929906;74;21547;-64
2022/08/02 03:59:16;;;;;;;9.98;7.67;;;27.30;78.80;;;;;;1929983;74;21037;-64
2022/08/02 04:01:45;;;;;;;11.30;7.70;;;27.20;78.70;;;;;;1929752;74;21099;-64
2022/08/02 04:04:15;;;;;;;8.18;6.33;;;27.20;78.90;;;;;;1929854;74;21053;-64
2022/08/02 04:06:44;;;;;;;7.47;5.35;;;27.20;78.90;;;;;;1929971;74;21027;-64
2022/08/02 04:09:13;;;;;;;6.00;5.50;;;27.30;78.80;;;;;;1929837;74;21076;-64
2022/08/02 04:11:42;;;;;;;7.05;4.50;;;27.40;78.50;;;;;;1929926;74;21029;-64
2022/08/02 04:14:12;;;;;;;6.00;4.87;;;27.50;78.40;;;;;;1929982;74;20998;-65
2022/08/02 04:16:47;;;;;;;4.75;4.35;;;27.50;78.20;;;;;;1929995;74;21045;-64
2022/08/02 04:19:16;;;;;;;;;;;27.70;77.80;;;;;;1932780;74;21526;-64
2022/08/02 04:21:48;;;;;;;4.60;4.17;;;27.70;77.00;;;;;;1929808;74;20146;-64
2022/08/02 04:24:20;;;;;;;5.10;4.50;;;27.70;77.00;;;;;;1929826;74;21017;-64
2022/08/02 04:26:50;;;;;;;5.58;4.62;;;27.70;76.80;;;;;;1929930;74;21041;-64
2022/08/02 04:29:20;;;;;;;5.33;4.83;;;27.70;76.90;;;;;;1929715;74;21665;-64
2022/08/02 04:31:49;;;;;;;6.95;4.55;;;27.60;77.00;;;;;;1929781;74;21017;-64
2022/08/02 04:34:19;;;;;;;7.70;4.15;;;27.60;77.10;;;;;;1929731;74;20989;-64
2022/08/02 04:36:48;;;;;;;5.05;4.62;;;27.60;77.10;;;;;;1929712;74;21083;-63
2022/08/02 04:39:19;;;;;;;5.75;4.67;;;27.50;77.00;;;;;;1929686;74;21009;-64
2022/08/02 04:41:48;;;;;;;5.35;4.90;;;27.50;77.10;;;;;;1929784;74;20990;-64
2022/08/02 04:44:17;;;;;;;7.85;4.70;;;27.50;77.20;;;;;;1929769;74;21083;-64
2022/08/02 04:46:46;;;;;;;7.45;6.72;;;27.50;77.10;;;;;;1930011;74;20990;-64
2022/08/02 04:49:16;;;;;;;9.35;6.40;;;27.50;77.10;;;;;;1906243;73;21067;-64
2022/08/02 04:51:45;;;;;;;5.95;5.08;;;27.50;77.10;;;;;;1904215;75;21065;-63
2022/08/02 04:54:15;;;;;;;7.05;5.40;;;27.50;77.00;;;;;;1904369;75;21069;-63
2022/08/02 04:56:44;;;;;;;5.67;5.15;;;27.60;76.90;;;;;;1904374;75;21089;-63
2022/08/02 04:59:14;;;;;;;6.35;5.05;;;27.60;76.80;;;;;;1904259;75;21096;-64
2022/08/02 05:01:43;;;;;;;6.00;4.25;;;27.70;76.80;;;;;;1904250;75;21517;-64
2022/08/02 05:04:13;;;;;;;6.03;4.80;;;27.80;76.60;;;;;;1904264;75;21510;-64
2022/08/02 05:06:42;;;;;;;6.70;4.03;;;27.90;76.50;;;;;;1904350;75;21103;-64
2022/08/02 05:09:12;;;;;;;4.65;4.12;;;28.10;76.10;;;;;;1904281;75;21026;-64
2022/08/02 05:11:41;;;;;;;4.97;4.35;;;28.20;75.80;;;;;;1904216;75;20999;-64
2022/08/02 05:14:11;;;;;;;6.42;4.58;;;28.30;75.50;;;;;;1904233;75;21051;-64
2022/08/02 05:16:40;;;;;;;6.72;4.70;;;28.50;75.10;;;;;;1904211;75;21042;-64
2022/08/02 05:19:09;;;;;;;5.58;4.15;;;28.60;74.60;;;;;;1904186;75;21429;-64
2022/08/02 05:21:39;;;;;;;7.53;4.25;;;28.80;74.20;;;;;;1904116;75;21022;-64
2022/08/02 05:24:08;;;;;;;9.50;4.17;;;28.90;74.00;;;;;;1904216;75;21031;-64
2022/08/02 05:26:38;;;;;;;4.65;3.87;;;29.00;73.40;;;;;;1904146;75;21103;-64
2022/08/02 05:29:07;;;;;;;7.75;3.98;;;29.10;73.00;;;;;;1903928;75;21031;-64
2022/08/02 05:31:37;;;;;;;5.45;4.37;;;29.30;72.80;;;;;;1904135;75;21038;-64
2022/08/02 05:34:06;;;;;;;11.40;4.35;;;29.40;72.50;;;;;;1904221;75;21050;-64
2022/08/02 05:36:36;;;;;;;4.33;3.92;;;29.50;71.90;;;;;;1904468;75;21030;-64
2022/08/02 05:39:06;;;;;;;7.87;3.98;;;29.60;71.20;;;;;;1904373;75;21027;-64
2022/08/02 05:41:35;;;;;;;11.08;4.50;;;29.70;70.90;;;;;;1904230;75;21014;-65
2022/08/02 05:44:04;;;;;;;6.78;4.05;;;29.70;70.40;;;;;;1904363;75;21074;-64
2022/08/02 05:46:34;;;;;;;15.40;4.33;;;29.70;70.30;;;;;;1904327;75;21038;-64
2022/08/02 05:49:04;;;;;;;8.85;4.78;;;29.80;70.40;;;;;;1918496;74;21127;-64
2022/08/02 05:51:41;;;;;;;5.60;4.37;;;29.80;70.20;;;;;;1929591;74;21526;-64
2022/08/02 05:54:22;;;;;;;5.62;3.77;;;29.90;70.40;;;;;;1926258;74;21095;-64
2022/08/02 05:57:03;;;;;;;8.33;3.87;;;29.90;70.20;;;;;;1929724;74;21041;-64
2022/08/02 05:59:56;;;;;;;4.90;3.60;;;30.00;70.00;;;;;;1929739;74;21037;-65
2022/08/02 06:02:46;;;;;;;6.10;3.58;;;30.10;69.70;;;;;;1928437;74;21018;-65
2022/08/02 06:05:18;;;;;;;6.28;3.77;;;30.10;69.40;;;;;;1929783;74;21057;-64
2022/08/02 06:07:49;;;;;;;5.20;3.77;;;30.10;69.50;;;;;;1929861;74;21539;-64
2022/08/02 06:10:21;;;;;;;8.20;4.05;;;30.20;69.50;;;;;;1929731;74;21001;-64
2022/08/02 06:12:53;;;;;;;4.20;3.80;;;30.30;69.30;;;;;;1929827;74;21448;-64
2022/08/02 06:15:22;;;;;;;5.42;3.90;;;30.40;68.70;;;;;;1926395;74;21476;-64
2022/08/02 06:17:52;;;;;;;5.65;3.67;;;30.50;68.40;;;;;;1929668;74;21001;-64
2022/08/02 06:20:22;;;;;;;5.33;3.52;;;30.60;68.10;;;;;;1929695;74;21087;-64
2022/08/02 06:22:55;;;;;;;4.08;3.67;;;30.60;67.60;;;;;;1929722;74;21115;-64
2022/08/02 06:25:25;;;;;;;4.95;3.60;;;30.70;67.20;;;;;;1929957;74;21104;-64
2022/08/02 06:27:55;;;;;;;5.90;3.98;;;30.70;67.10;;;;;;1929870;74;21100;-64
2022/08/02 06:30:25;;;;;;;5.28;3.87;;;30.80;66.90;;;;;;1929692;74;21054;-64
2022/08/02 06:32:54;;;;;;;4.80;3.67;;;30.80;66.80;;;;;;1929799;74;21013;-65
2022/08/02 06:35:41;;;;;;;6.85;4.40;;;30.90;66.30;;;;;;1929822;74;21135;-65
2022/08/02 06:38:16;;;;;;;4.25;3.45;;;31.00;66.10;;;;;;1929586;74;21057;-64
2022/08/02 06:40:48;;;;;;;4.10;3.75;;;31.00;66.00;;;;;;1929697;74;21049;-65
2022/08/02 06:43:46;;;;;;;6.70;3.80;;;31.00;65.80;;;;;;1927780;74;21017;-64
2022/08/02 06:46:15;;;;;;;4.83;3.40;;;31.00;65.80;;;;;;1929820;74;21104;-64
2022/08/02 06:48:45;;;;;;;6.42;3.85;;;31.00;65.50;;;;;;1924558;74;21054;-65
2022/08/02 06:51:28;;;;;;;3.90;3.60;;;31.00;65.30;;;;;;1905442;75;21031;-65
2022/08/02 06:54:02;;;;;;;4.33;3.87;;;31.00;65.20;;;;;;1849987;77;21129;-64
2022/08/02 06:56:32;;;;;;;4.30;3.87;;;31.00;65.10;;;;;;1929964;74;21042;-64
2022/08/02 06:59:01;;;;;;;5.40;3.62;;;31.10;64.80;;;;;;1929896;74;21014;-64
2022/08/02 07:01:30;;;;;;;4.12;3.83;;;31.10;64.60;;;;;;1929777;74;20990;-64
2022/08/02 07:04:00;;;;;;;6.05;4.35;;;31.20;64.40;;;;;;1929851;74;21099;-64
2022/08/02 07:06:30;;;;;;;4.45;3.77;;;31.20;64.20;;;;;;1930002;74;21017;-64
2022/08/02 07:09:00;;;;;;;5.87;4.67;;;31.30;63.90;;;;;;1929733;74;21057;-64
2022/08/02 07:11:29;;;;;;;7.87;4.90;;;31.30;63.80;;;;;;1929674;74;21152;-64
2022/08/02 07:13:58;;;;;;;5.20;4.20;;;31.40;63.80;;;;;;1929725;74;21005;-64
2022/08/02 07:16:28;;;;;;;4.87;3.65;;;31.50;63.20;;;;;;1929855;74;21037;-64
2022/08/02 07:18:57;;;;;;;9.83;4.62;;;31.50;63.10;;;;;;1929922;74;21033;-64
2022/08/02 07:21:26;;;;;;;6.70;4.40;;;31.50;62.90;;;;;;1929732;74;21134;-64
2022/08/02 07:23:56;;;;;;;4.40;4.00;;;31.60;62.40;;;;;;1929887;74;21117;-64
2022/08/02 07:26:25;;;;;;;5.08;4.33;;;31.60;61.90;;;;;;1929854;74;21135;-64
2022/08/02 07:28:55;;;;;;;4.80;3.80;;;31.70;61.80;;;;;;1929671;74;21119;-64
2022/08/02 07:31:24;;;;;;;5.08;3.42;;;31.80;61.70;;;;;;1929809;74;21038;-65
2022/08/02 07:33:53;;;;;;;7.55;3.40;;;31.80;60.90;;;;;;1929879;74;21099;-64
2022/08/02 07:36:23;;;;;;;4.03;3.62;;;31.80;60.50;;;;;;1929772;74;21029;-64
2022/08/02 07:38:52;;;;;;;4.28;3.60;;;31.90;60.20;;;;;;1929945;74;21017;-65
2022/08/02 07:41:22;;;;;;;3.67;3.37;;;32.00;60.10;;;;;;1929955;74;21029;-64
2022/08/02 07:43:51;;;;;;;3.95;3.65;;;32.00;59.40;;;;;;1929740;74;21014;-64
2022/08/02 07:46:21;;;;;;;8.13;3.85;;;32.10;59.50;;;;;;1929911;74;21115;-64
2022/08/02 07:48:53;;;;;;;7.97;4.25;;;32.10;59.00;;;;;;1929735;74;21029;-64
2022/08/02 07:51:22;;;;;;;4.33;3.92;;;32.10;58.80;;;;;;1929869;74;21480;-64
2022/08/02 07:53:51;;;;;;;4.50;3.70;;;32.20;58.60;;;;;;1921551;74;21054;-64
2022/08/02 07:56:21;;;;;;;4.30;3.90;;;32.20;58.60;;;;;;1917277;75;21486;-64
2022/08/02 07:58:50;;;;;;;4.55;4.10;;;32.20;58.60;;;;;;1917271;75;21099;-64
2022/08/02 08:01:20;;;;;;;5.00;3.80;;;32.30;58.60;;;;;;1917379;75;21073;-64
2022/08/02 08:03:49;;;;;;;6.37;4.40;;;32.30;58.50;;;;;;1917240;75;21045;-64
2022/08/02 08:06:19;;;;;;;7.22;4.50;;;32.50;58.40;;;;;;1917352;75;21006;-64
2022/08/02 08:08:48;;;;;;;6.42;4.22;;;32.50;58.20;;;;;;1917265;75;21041;-64
2022/08/02 08:11:18;;;;;;;6.35;4.47;;;32.50;57.30;;;;;;1917325;75;21010;-64
2022/08/02 08:13:48;;;;;;;4.83;3.27;;;32.50;56.20;;;;;;1917243;75;21538;-64
2022/08/02 08:16:17;;;;;;;8.60;4.30;;;32.60;56.70;;;;;;1917377;75;21057;-65
2022/08/02 08:18:46;;;;;;;5.10;3.90;;;32.60;57.20;;;;;;1917277;75;21139;-64
2022/08/02 08:21:16;;;;;;;5.62;3.60;;;32.60;57.30;;;;;;1917439;75;20994;-64
2022/08/02 08:23:45;;;;;;;4.78;3.50;;;32.60;57.60;;;;;;1917329;75;21018;-65
2022/08/02 08:26:15;;;;;;;8.10;3.42;;;32.70;57.70;;;;;;1917417;75;21033;-64
2022/08/02 08:28:44;;;;;;;4.37;3.50;;;32.70;58.00;;;;;;1917353;75;21093;-64
2022/08/02 08:31:14;;;;;;;4.37;3.22;;;32.70;57.30;;;;;;1917351;75;21053;-65
2022/08/02 08:33:43;;;;;;;5.33;3.45;;;32.70;56.80;;;;;;1917376;75;21100;-65
2022/08/02 08:36:15;;;;;;;4.45;3.47;;;32.60;57.20;;;;;;1917334;75;21084;-65
2022/08/02 08:38:44;;;;;;;9.45;4.33;;;32.50;57.70;;;;;;1917314;75;21437;-64
2022/08/02 08:41:14;;;;;;;7.20;3.30;;;32.50;58.40;;;;;;1917266;75;21034;-64
2022/08/02 08:43:44;;;;;;;3.37;3.08;;;32.50;58.10;;;;;;1917191;75;21433;-64
2022/08/02 08:46:18;;;;;;;4.65;3.27;;;32.70;58.20;;;;;;1917230;75;21131;-65
2022/08/02 08:48:50;;;;;;;12.28;3.87;;;32.60;58.40;;;;;;1916051;74;21111;-65
2022/08/02 08:51:22;;;;;;;6.00;3.42;;;32.70;58.40;;;;;;1917441;75;21026;-65
2022/08/02 08:53:53;;;;;;;5.95;3.25;;;32.60;58.80;;;;;;1918685;75;21050;-65
2022/08/02 08:56:24;;;;;;;8.15;3.30;;;32.70;58.80;;;;;;1921052;75;21010;-64
2022/08/02 08:58:53;;;;;;;4.33;2.83;;;32.80;58.10;;;;;;1920851;75;21026;-65
2022/08/02 09:01:23;;;;;;;4.70;2.92;;;32.90;56.90;;;;;;1920886;75;21018;-65
2022/08/02 09:03:52;;;;;;;5.42;3.30;;;33.00;57.00;;;;;;1920833;75;21021;-65
2022/08/02 09:06:22;;;;;;;13.08;4.35;;;33.00;57.30;;;;;;1921021;75;21030;-65
2022/08/02 09:08:51;;;;;;;3.80;3.50;;;33.10;57.50;;;;;;1920855;75;21095;-65
2022/08/02 09:11:25;;;;;;;5.33;3.90;;;33.20;57.80;;;;;;1920897;75;21010;-65
2022/08/02 09:13:56;;;;;;;14.63;4.17;;;33.30;57.20;;;;;;1921181;75;21014;-65
2022/08/02 09:16:37;;;;;;;11.55;3.55;;;33.30;57.40;;;;;;1920772;75;21101;-65
2022/08/02 09:19:24;;;;;;;4.08;3.50;;;33.30;57.20;;;;;;1920859;75;21046;-65
2022/08/02 09:22:08;;;;;;;8.13;3.80;;;33.20;57.10;;;;;;1920874;75;21005;-65
2022/08/02 09:24:49;;;;;;;4.50;3.15;;;33.10;57.10;;;;;;1920945;75;21068;-65
2022/08/02 09:27:22;;;;;;;7.65;4.75;;;33.10;57.10;;;;;;1920912;75;20990;-65
2022/08/02 09:29:54;;;;;;;8.80;6.72;;;33.10;56.70;;;;;;1921003;75;21006;-65
2022/08/02 09:32:23;;;;;;;5.15;3.72;;;33.10;56.30;;;;;;1920838;75;21025;-65
2022/08/02 09:34:54;;;;;;;3.92;2.83;;;33.10;56.30;;;;;;1920780;73;21014;-65
2022/08/02 09:37:30;;;;;;;4.37;3.30;;;33.20;56.00;;;;;;1921015;75;21018;-65
2022/08/02 09:40:02;;;;;;;15.98;4.70;;;33.20;55.60;;;;;;1920947;75;21018;-65
2022/08/02 09:42:31;;;;;;;9.18;4.28;;;33.10;55.60;;;;;;1920946;75;21013;-65
2022/08/02 09:45:02;;;;;;;4.22;3.05;;;33.10;55.50;;;;;;1920942;75;21026;-65
2022/08/02 09:47:32;;;;;;;8.48;3.65;;;33.00;55.30;;;;;;1920889;75;21103;-65
2022/08/02 09:50:01;;;;;;;8.23;3.35;;;32.90;55.40;;;;;;1920947;75;21456;-65
2022/08/02 09:52:32;;;;;;;3.50;3.17;;;33.00;55.70;;;;;;1920992;75;21033;-65
2022/08/02 09:55:06;;;;;;;3.47;3.05;;;33.00;55.60;;;;;;1920851;74;21066;-65
2022/08/02 09:57:40;;;;;;;5.40;3.50;;;33.10;55.80;;;;;;1921325;75;21017;-65
2022/08/02 10:00:11;;;;;;;4.08;3.10;;;33.10;55.30;;;;;;1919814;75;21032;-65
2022/08/02 10:02:40;;;;;;;12.07;3.60;;;33.20;55.50;;;;;;1921033;75;21443;-65
2022/08/02 10:05:10;;;;;;;4.35;3.62;;;33.20;55.60;;;;;;1920854;74;21002;-65
2022/08/02 10:07:39;;;;;;;4.40;3.37;;;33.30;55.30;;;;;;1920791;75;21072;-65
2022/08/02 10:10:09;;;;;;;3.92;2.65;;;33.30;54.90;;;;;;1920883;75;21025;-65
2022/08/02 10:12:39;;;;;;;6.37;2.72;;;33.30;55.00;;;;;;1920865;75;21023;-65
2022/08/02 10:15:09;;;;;;;5.47;2.90;;;33.30;55.10;;;;;;1920871;75;21009;-65
2022/08/02 10:17:38;;;;;;;4.45;2.77;;;33.40;55.10;;;;;;1920922;75;21029;-65
2022/08/02 10:20:09;;;;;;;23.07;4.20;;;33.40;54.90;;;;;;1920868;74;21143;-65
2022/08/02 10:22:40;;;;;;;3.15;2.85;;;33.50;54.90;;;;;;1920822;75;21042;-65
2022/08/02 10:25:10;;;;;;;6.20;3.20;;;33.50;55.00;;;;;;1920685;73;21022;-65
2022/08/02 10:27:41;;;;;;;7.37;2.92;;;33.50;54.80;;;;;;1920822;75;21101;-65
2022/08/02 10:30:11;;;;;;;5.47;3.05;;;33.50;54.50;;;;;;1920822;75;21002;-66
2022/08/02 10:32:43;;;;;;;17.98;3.85;;;33.50;54.80;;;;;;1920797;75;21079;-66
2022/08/02 10:35:14;;;;;;;5.25;2.83;;;33.50;55.50;;;;;;1919833;75;21500;-66
2022/08/02 10:37:45;;;;;;;4.60;3.10;;;33.50;54.80;;;;;;1920766;75;21022;-66
2022/08/02 10:40:29;;;;;;;2.98;2.70;;;33.40;54.60;;;;;;1920783;75;21018;-66
2022/08/02 10:42:59;;;;;;;5.80;3.30;;;33.30;54.90;;;;;;1919715;75;21045;-64
2022/08/02 10:45:29;;;;;;;14.20;2.90;;;33.30;55.10;;;;;;1919634;75;21097;-63
